createdAt,value
2023-03-15T00:01:46.802Z,86.39
2023-03-15T00:04:57.377Z,86.59
2023-03-15T00:08:11.011Z,98.47
2023-03-15T00:11:18.708Z,83.54
2023-03-15T00:14:25.111Z,107.04
2023-03-15T00:17:34.986Z,116.07
2023-03-15T00:20:46.531Z,86.55
2023-03-15T00:23:56.392Z,125.64
2023-03-15T00:27:05.051Z,109.95
2023-03-15T00:30:18.912Z,116.62
2023-03-15T00:33:24.931Z,101.51
2023-03-15T00:36:36.037Z,107.99
2023-03-15T00:39:41.905Z,66.75
2023-03-15T00:42:50.595Z,51.31
2023-03-15T00:45:56.478Z,46.74
2023-03-15T00:49:03.153Z,65.28
2023-03-15T00:52:12.855Z,73.67
2023-03-15T00:55:23.052Z,81.26
2023-03-15T00:58:29.036Z,92.11
2023-03-15T01:01:35.910Z,73.12
2023-03-15T01:04:43.554Z,79.48
2023-03-15T01:07:54.677Z,79.97
2023-03-15T01:11:06.346Z,92.54
2023-03-15T01:14:13.819Z,79.78
2023-03-15T01:17:19.771Z,64.64
2023-03-15T01:20:26.555Z,62.19
2023-03-15T01:23:35.129Z,83.97
2023-03-15T01:26:41.942Z,74.19
2023-03-15T01:29:49.749Z,68.48
2023-03-15T01:32:56.827Z,83.72
2023-03-15T01:36:06.169Z,85.43
2023-03-15T01:39:16.593Z,72.10
2023-03-15T01:42:26.286Z,78.92
2023-03-15T01:46:05.141Z,83.75
2023-03-15T01:49:23.032Z,85.92
2023-03-15T01:52:37.293Z,69.15
2023-03-15T01:56:04.888Z,70.95
2023-03-15T01:59:24.453Z,63.77
2023-03-15T02:02:32.149Z,62.85
2023-03-15T02:05:49.784Z,62.50
2023-03-15T02:09:22.402Z,68.96
2023-03-15T02:12:37.950Z,61.45
2023-03-15T02:15:46.969Z,62.82
2023-03-15T02:19:00.750Z,59.78
2023-03-15T02:22:29.560Z,59.95
2023-03-15T02:25:53.928Z,59.58
2023-03-15T02:29:09.346Z,62.29
2023-03-15T02:32:16.093Z,64.70
2023-03-15T02:35:41.303Z,67.84
2023-03-15T02:38:48.585Z,67.85
2023-03-15T02:42:08.078Z,66.15
2023-03-15T02:45:18.531Z,64.28
2023-03-15T02:48:25.524Z,61.81
2023-03-15T02:51:36.296Z,65.54
2023-03-15T02:54:43.747Z,64.46
2023-03-15T02:57:51.040Z,61.23
2023-03-15T03:00:59.464Z,62.32
2023-03-15T03:04:07.155Z,72.41
2023-03-15T03:07:13.578Z,83.73
2023-03-15T03:10:42.988Z,69.26
2023-03-15T03:13:49.253Z,77.52
2023-03-15T03:17:05.419Z,70.15
2023-03-15T03:20:16.948Z,67.86
2023-03-15T03:23:28.378Z,71.38
2023-03-15T03:26:36.382Z,73.00
2023-03-15T03:29:43.587Z,78.31
2023-03-15T03:32:54.426Z,80.40
2023-03-15T03:36:07.852Z,80.55
2023-03-15T03:39:14.284Z,81.37
2023-03-15T03:42:23.340Z,81.47
2023-03-15T03:45:29.438Z,80.84
2023-03-15T03:48:44.004Z,91.29
2023-03-15T03:51:49.954Z,93.67
2023-03-15T03:54:57.175Z,86.70
2023-03-15T03:58:03.150Z,86.52
2023-03-15T04:01:17.970Z,83.15
2023-03-15T04:04:42.399Z,91.86
2023-03-15T04:07:57.199Z,93.30
2023-03-15T04:11:10.050Z,86.87
2023-03-15T04:14:19.140Z,84.29
2023-03-15T04:17:28.082Z,90.26
2023-03-15T04:20:39.381Z,80.60
2023-03-15T04:23:46.332Z,84.33
2023-03-15T04:26:58.702Z,84.05
2023-03-15T04:30:27.326Z,88.74
2023-03-15T04:34:00.127Z,90.85
2023-03-15T04:37:15.330Z,112.21
2023-03-15T04:40:43.232Z,112.87
2023-03-15T04:44:21.252Z,144.33
2023-03-15T04:48:01.927Z,126.80
2023-03-15T04:51:19.931Z,127.93
2023-03-15T04:54:45.338Z,128.22
2023-03-15T04:58:16.439Z,176.49
2023-03-15T05:01:42.111Z,136.03
2023-03-15T05:05:20.323Z,134.93
2023-03-15T05:08:40.819Z,123.72
2023-03-15T05:11:55.860Z,128.45
2023-03-15T05:15:24.647Z,108.02
2023-03-15T05:18:30.575Z,108.95
2023-03-15T05:21:52.516Z,128.11
2023-03-15T05:25:21.287Z,108.95
2023-03-15T05:28:49.317Z,101.67
2023-03-15T05:31:55.339Z,94.04
2023-03-15T05:35:37.526Z,96.47
2023-03-15T05:38:53.122Z,95.81
2023-03-15T05:42:10.904Z,90.13
2023-03-15T05:45:40.413Z,87.84
2023-03-15T05:49:04.988Z,91.66
2023-03-15T05:52:26.750Z,110.96
2023-03-15T05:55:59.653Z,90.64
2023-03-15T05:59:21.119Z,114.58
2023-03-15T06:02:55.009Z,106.01
2023-03-15T06:06:19.417Z,90.54
2023-03-15T06:09:33.461Z,100.05
2023-03-15T06:12:50.433Z,93.41
2023-03-15T06:15:57.687Z,86.77
2023-03-15T06:19:08.210Z,91.39
2023-03-15T06:22:16.438Z,72.89
2023-03-15T06:25:30.823Z,78.78
2023-03-15T06:28:38.967Z,69.25
2023-03-15T06:31:45.011Z,65.00
2023-03-15T06:34:55.066Z,53.91
2023-03-15T06:38:01.541Z,61.81
2023-03-15T06:41:08.818Z,72.35
2023-03-15T06:44:16.080Z,53.22
2023-03-15T06:47:23.729Z,46.53
2023-03-15T06:50:46.092Z,67.68
2023-03-15T06:53:54.307Z,141.46
2023-03-15T06:57:01.601Z,99.22
2023-03-15T07:00:11.514Z,76.18
2023-03-15T07:03:17.485Z,84.48
2023-03-15T07:06:28.491Z,180.10
2023-03-15T07:09:34.406Z,88.54
2023-03-15T07:12:41.124Z,75.75
2023-03-15T07:15:47.997Z,66.77
2023-03-15T07:18:56.408Z,68.75
2023-03-15T07:22:04.919Z,45.06
2023-03-15T07:25:13.033Z,44.72
2023-03-15T07:28:19.075Z,47.83
2023-03-15T07:31:26.096Z,61.18
2023-03-15T07:34:32.046Z,53.74
2023-03-15T07:37:44.757Z,52.10
2023-03-15T07:40:50.819Z,53.05
2023-03-15T07:43:58.552Z,57.06
2023-03-15T07:47:04.599Z,51.15
2023-03-15T07:50:16.456Z,49.81
2023-03-15T07:53:32.190Z,43.95
2023-03-15T07:56:39.334Z,45.40
2023-03-15T07:59:46.419Z,42.07
2023-03-15T08:02:56.495Z,42.75
2023-03-15T08:06:02.368Z,49.90
2023-03-15T08:09:13.230Z,49.75
2023-03-15T08:12:30.289Z,46.50
2023-03-15T08:15:44.404Z,63.29
2023-03-15T08:18:50.271Z,59.97
2023-03-15T08:21:57.148Z,58.05
2023-03-15T08:25:05.603Z,47.13
2023-03-15T08:28:12.917Z,41.08
2023-03-15T08:31:18.967Z,43.29
2023-03-15T08:34:26.326Z,38.79
2023-03-15T08:37:32.159Z,42.13
2023-03-15T08:40:41.703Z,44.01
2023-03-15T08:43:47.711Z,41.82
2023-03-15T08:46:54.480Z,56.63
2023-03-15T08:50:00.482Z,106.88
2023-03-15T08:53:07.154Z,93.95
2023-03-15T08:56:16.397Z,81.26
2023-03-15T08:59:31.704Z,174.36
2023-03-15T09:02:40.280Z,97.38
2023-03-15T09:05:49.863Z,158.33
2023-03-15T09:08:56.753Z,108.90
2023-03-15T09:12:16.498Z,77.54
2023-03-15T09:15:22.743Z,103.24
2023-03-15T09:18:29.623Z,54.75
2023-03-15T09:21:35.779Z,38.95
2023-03-15T09:24:42.491Z,124.96
2023-03-15T09:27:52.938Z,77.45
2023-03-15T09:31:00.203Z,63.47
2023-03-15T09:34:06.897Z,46.90
2023-03-15T09:37:13.940Z,56.32
2023-03-15T09:40:27.647Z,50.40
2023-03-15T09:44:25.432Z,42.48
2023-03-15T09:47:49.909Z,47.53
2023-03-15T09:51:12.183Z,37.18
2023-03-15T09:54:24.096Z,52.69
2023-03-15T09:57:49.913Z,46.31
2023-03-15T10:01:07.595Z,40.99
2023-03-15T10:04:30.404Z,44.71
2023-03-15T10:07:36.327Z,56.29
2023-03-15T10:10:56.504Z,40.60
2023-03-15T10:14:25.609Z,80.64
2023-03-15T10:17:53.247Z,90.22
2023-03-15T10:21:14.110Z,41.82
2023-03-15T10:24:27.299Z,40.80
2023-03-15T10:27:44.553Z,44.88
2023-03-15T10:30:54.466Z,46.45
2023-03-15T10:34:09.827Z,46.10
2023-03-15T10:37:16.553Z,43.44
2023-03-15T10:40:45.369Z,63.30
2023-03-15T10:44:04.902Z,71.34
2023-03-15T10:47:23.713Z,81.00
2023-03-15T10:50:42.352Z,39.95
2023-03-15T10:53:58.759Z,42.23
2023-03-15T10:57:16.728Z,52.89
2023-03-15T11:00:32.617Z,64.27
2023-03-15T11:03:44.191Z,73.18
2023-03-15T11:07:03.828Z,55.83
2023-03-15T11:10:25.490Z,63.47
2023-03-15T11:13:34.140Z,47.97
2023-03-15T11:16:41.441Z,47.43
2023-03-15T11:19:59.883Z,46.84
2023-03-15T11:23:22.822Z,71.32
2023-03-15T11:26:33.012Z,51.59
2023-03-15T11:29:45.343Z,50.66
2023-03-15T11:32:51.355Z,51.33
2023-03-15T11:36:03.079Z,54.11
2023-03-15T11:39:18.698Z,154.45
2023-03-15T11:42:36.851Z,191.63
2023-03-15T11:45:54.214Z,45.26
2023-03-15T11:49:45.504Z,68.84
2023-03-15T11:52:54.016Z,148.70
2023-03-15T11:56:26.615Z,158.72
2023-03-15T11:59:36.891Z,68.49
2023-03-15T12:02:54.470Z,68.54
2023-03-15T12:06:34.297Z,72.99
2023-03-15T12:09:52.646Z,65.45
2023-03-15T12:13:20.018Z,67.72
2023-03-15T12:16:31.781Z,58.22
2023-03-15T12:19:40.560Z,49.06
2023-03-15T12:22:57.425Z,64.56
2023-03-15T12:26:26.922Z,53.33
2023-03-15T12:29:38.860Z,48.17
2023-03-15T12:32:55.140Z,85.79
2023-03-15T12:36:18.446Z,82.40
2023-03-15T12:39:43.072Z,87.73
2023-03-15T12:43:09.322Z,122.89
2023-03-15T12:47:04.624Z,67.75
2023-03-15T12:50:41.710Z,67.96
2023-03-15T12:53:57.174Z,73.23
2023-03-15T12:57:07.976Z,103.79
2023-03-15T13:00:23.990Z,55.94
2023-03-15T13:03:34.950Z,58.81
2023-03-15T13:07:07.697Z,83.17
2023-03-15T13:11:04.205Z,50.67
2023-03-15T13:14:35.914Z,81.30
2023-03-15T13:17:53.889Z,67.44
2023-03-15T13:21:21.356Z,73.43
2023-03-15T13:24:45.457Z,105.05
2023-03-15T13:28:01.954Z,111.47
2023-03-15T13:31:29.939Z,120.21
2023-03-15T13:34:38.435Z,93.39
2023-03-15T13:37:47.056Z,80.83
2023-03-15T13:40:54.102Z,61.33
2023-03-15T13:44:05.252Z,135.78
2023-03-15T13:47:23.610Z,113.34
2023-03-15T13:50:29.675Z,55.62
2023-03-15T13:53:49.788Z,48.87
2023-03-15T13:57:06.492Z,85.91
2023-03-15T14:00:19.460Z,92.46
2023-03-15T14:03:26.317Z,68.58
2023-03-15T14:06:33.713Z,76.36
2023-03-15T14:09:42.310Z,85.15
2023-03-15T14:12:50.008Z,50.08
2023-03-15T14:16:04.195Z,57.08
2023-03-15T14:19:22.187Z,65.42
2023-03-15T14:22:36.038Z,75.57
2023-03-15T14:25:46.778Z,106.07
2023-03-15T14:29:04.972Z,121.62
2023-03-15T14:32:27.921Z,108.43
2023-03-15T14:35:43.705Z,81.85
2023-03-15T14:38:56.460Z,72.14
2023-03-15T14:42:04.886Z,53.07
2023-03-15T14:45:13.502Z,66.66
2023-03-15T14:48:32.164Z,107.69
2023-03-15T14:51:46.416Z,78.68
2023-03-15T14:55:06.765Z,64.80
2023-03-15T14:58:20.237Z,54.67
2023-03-15T15:01:30.412Z,36.36
2023-03-15T15:04:39.799Z,54.76
2023-03-15T15:07:45.868Z,84.66
2023-03-15T15:10:58.920Z,74.03
2023-03-15T15:14:07.508Z,124.99
2023-03-15T15:17:14.304Z,138.05
2023-03-15T15:20:20.997Z,49.17
2023-03-15T15:23:32.258Z,56.22
2023-03-15T15:26:39.303Z,55.90
2023-03-15T15:29:49.343Z,39.92
2023-03-15T15:33:07.668Z,53.31
2023-03-15T15:36:24.405Z,98.89
2023-03-15T15:39:31.133Z,92.26
2023-03-15T15:42:37.820Z,96.16
2023-03-15T15:45:49.257Z,110.77
2023-03-15T15:48:56.304Z,89.45
2023-03-15T15:52:04.926Z,58.04
2023-03-15T15:55:15.738Z,53.36
2023-03-15T15:58:23.435Z,140.90
2023-03-15T16:01:33.398Z,92.97
2023-03-15T16:04:42.243Z,51.76
2023-03-15T16:07:49.837Z,146.65
2023-03-15T16:10:59.077Z,121.18
2023-03-15T16:14:06.302Z,64.68
2023-03-15T16:17:24.378Z,122.77
2023-03-15T16:20:31.386Z,83.58
2023-03-15T16:23:38.875Z,82.29
2023-03-15T16:26:52.580Z,151.73
2023-03-15T16:29:59.358Z,102.52
2023-03-15T16:33:19.110Z,70.12
2023-03-15T16:36:28.740Z,128.89
2023-03-15T16:39:41.123Z,106.61
2023-03-15T16:43:06.063Z,115.02
2023-03-15T16:46:26.957Z,112.19
2023-03-15T16:49:59.236Z,169.74
2023-03-15T16:53:27.003Z,80.69
2023-03-15T16:56:43.238Z,96.71
2023-03-15T16:59:49.171Z,183.51
2023-03-15T17:03:00.178Z,283.89
2023-03-15T17:06:09.745Z,188.52
2023-03-15T17:09:22.846Z,169.25
2023-03-15T17:12:37.232Z,149.98
2023-03-15T17:15:44.417Z,154.39
2023-03-15T17:18:56.003Z,181.47
2023-03-15T17:22:05.689Z,162.77
2023-03-15T17:25:18.603Z,162.61
2023-03-15T17:28:31.811Z,158.73
2023-03-15T17:31:40.324Z,154.45
2023-03-15T17:34:52.827Z,178.92
2023-03-15T17:38:08.783Z,153.49
2023-03-15T17:41:37.406Z,320.53
2023-03-15T17:44:43.514Z,193.77
2023-03-15T17:47:50.484Z,189.70
2023-03-15T17:50:59.369Z,211.04
2023-03-15T17:54:20.949Z,241.37
2023-03-15T17:57:27.342Z,204.49
2023-03-15T18:00:42.290Z,170.64
2023-03-15T18:03:49.532Z,186.04
2023-03-15T18:06:56.501Z,229.38
2023-03-15T18:10:05.207Z,263.56
2023-03-15T18:13:19.220Z,267.75
2023-03-15T18:16:25.774Z,269.02
2023-03-15T18:19:33.069Z,258.98
2023-03-15T18:22:42.431Z,232.29
2023-03-15T18:25:52.461Z,213.55
2023-03-15T18:28:58.680Z,216.40
2023-03-15T18:32:05.759Z,227.87
2023-03-15T18:35:26.405Z,241.71
2023-03-15T18:38:33.482Z,280.87
2023-03-15T18:41:42.270Z,274.68
2023-03-15T18:44:49.115Z,297.16
2023-03-15T18:47:55.555Z,331.87
2023-03-15T18:51:02.404Z,377.35
2023-03-15T18:54:08.794Z,534.76
2023-03-15T18:57:20.706Z,772.22
2023-03-15T19:00:36.343Z,1018.74
2023-03-15T19:03:44.170Z,1271.78
2023-03-15T19:06:51.759Z,1086.35
2023-03-15T19:09:59.545Z,906.72
2023-03-15T19:13:09.880Z,746.28
2023-03-15T19:16:17.841Z,730.16
2023-03-15T19:19:24.181Z,780.56
2023-03-15T19:22:32.047Z,719.27
2023-03-15T19:25:40.413Z,592.88
2023-03-15T19:28:50.715Z,518.56
2023-03-15T19:31:57.380Z,504.99
2023-03-15T19:35:06.025Z,507.05
2023-03-15T19:38:13.103Z,508.35
2023-03-15T19:41:20.195Z,509.04
2023-03-15T19:44:30.840Z,542.82
2023-03-15T19:47:38.363Z,482.56
2023-03-15T19:50:45.513Z,417.19
2023-03-15T19:53:56.775Z,360.50
2023-03-15T19:57:03.673Z,439.35
2023-03-15T20:00:16.992Z,715.21
2023-03-15T20:03:25.920Z,521.40
2023-03-15T20:06:33.147Z,391.62
2023-03-15T20:09:40.076Z,365.69
2023-03-15T20:12:47.663Z,357.81
2023-03-15T20:16:03.225Z,319.93
2023-03-15T20:19:11.048Z,326.68
2023-03-15T20:22:18.116Z,309.85
2023-03-15T20:25:26.266Z,323.14
2023-03-15T20:28:32.444Z,356.05
2023-03-15T20:31:48.556Z,407.94
2023-03-15T20:34:57.654Z,330.12
2023-03-15T20:38:06.978Z,259.09
2023-03-15T20:41:20.741Z,252.56
2023-03-15T20:44:38.074Z,287.07
2023-03-15T20:47:46.762Z,314.77
2023-03-15T20:50:54.213Z,341.71
2023-03-15T20:54:01.093Z,393.22
2023-03-15T20:57:08.435Z,402.11
2023-03-15T21:00:22.776Z,426.58
2023-03-15T21:03:44.713Z,364.49
2023-03-15T21:06:50.959Z,504.19
2023-03-15T21:09:57.729Z,422.39
2023-03-15T21:13:10.193Z,327.34
2023-03-15T21:16:18.507Z,268.09
2023-03-15T21:19:29.402Z,314.10
2023-03-15T21:22:37.483Z,351.18
2023-03-15T21:25:57.457Z,385.52
2023-03-15T21:29:04.224Z,470.61
2023-03-15T21:32:11.301Z,387.97
2023-03-15T21:35:28.716Z,428.43
2023-03-15T21:38:37.613Z,398.50
2023-03-15T21:41:46.254Z,368.87
2023-03-15T21:44:55.758Z,402.21
2023-03-15T21:48:04.660Z,474.11
2023-03-15T21:51:14.707Z,549.55
2023-03-15T21:54:22.215Z,480.87
2023-03-15T21:57:34.073Z,427.72
2023-03-15T22:00:41.121Z,385.37
2023-03-15T22:03:47.122Z,326.08
2023-03-15T22:06:57.819Z,390.83
2023-03-15T22:10:05.075Z,379.63
2023-03-15T22:13:11.725Z,351.33
2023-03-15T22:16:17.996Z,360.96
2023-03-15T22:19:24.726Z,311.03
2023-03-15T22:22:33.722Z,288.60
2023-03-15T22:25:45.174Z,290.31
2023-03-15T22:28:51.706Z,308.15
2023-03-15T22:31:58.374Z,333.35
2023-03-15T22:35:08.467Z,330.88
2023-03-15T22:38:17.822Z,328.71
2023-03-15T22:41:24.305Z,337.08
2023-03-15T22:44:31.066Z,298.05
2023-03-15T22:47:41.855Z,281.10
2023-03-15T22:50:48.533Z,284.06
2023-03-15T22:53:57.438Z,295.73
2023-03-15T22:57:17.693Z,322.67
2023-03-15T23:00:43.976Z,321.38
2023-03-15T23:03:51.300Z,332.59
2023-03-15T23:06:57.214Z,331.68
2023-03-15T23:10:09.086Z,323.22
2023-03-15T23:13:15.130Z,339.84
2023-03-15T23:16:23.672Z,373.69
2023-03-15T23:19:38.396Z,389.30
2023-03-15T23:22:46.389Z,340.16
2023-03-15T23:25:55.413Z,319.35
2023-03-15T23:29:01.993Z,339.18
2023-03-15T23:32:09.708Z,393.21
2023-03-15T23:35:16.381Z,355.46
2023-03-15T23:38:22.437Z,388.02
2023-03-15T23:41:31.714Z,370.44
2023-03-15T23:44:37.576Z,349.13
2023-03-15T23:47:46.086Z,370.40
2023-03-15T23:50:56.475Z,324.89
2023-03-15T23:54:04.298Z,350.28
2023-03-15T23:57:16.248Z,352.82
